METAR UND TAF INFORMATION
RCTP 252030Z 07009KT 9999 FEW009 SCT015 BKN020 17/16 Q1019 NOSIG RMK A3009

 FLUGHAFENKARTE

 RUNWAY INFORMATION
Runway 05 Runway length 12008 ft Runway width 197 ft
Runway elevation 73 ft Runway displaced threshold 0 ft Runway heading 49
Runway 23 Runway length 12008 ft Runway width 197 ft
Runway elevation 62 ft Runway displaced threshold 0 ft Runway heading 229
Runway 06 Runway length 10991 ft Runway width 197 ft
Runway elevation 106 ft Runway displaced threshold 0 ft Runway heading 49
Runway 24 Runway length 10991 ft Runway width 197 ft
Runway elevation 95 ft Runway displaced threshold 0 ft Runway heading 229

 AIRPORT FREQUENCIES
Type APP Name TAIPEI APP Frequency 119.6 MHZ
Type APP Name TAIPEI APP Frequency 123.5 MHZ
Type ATIS Name ATIS Frequency 127.6 MHZ
Type CLD Name CLNC DEL Frequency 121.8 MHZ
Type GND Name GND Frequency 121.7 MHZ
Type TWR Name TAIPEI TWR Frequency 118.7 MHZ

 AIRPORT NEAR NAVIGATION AIDS
Type VOR-DME Name Chiang Kai Shek Frequency 114300 KHZ